Time;durP1;ratioP1;P1;durP2;ratioP2;P2;SDS_P1;SDS_P2;PMS_P1;PMS_P2;Temp;Humidity;BMP_temperature;BMP_pressure;BME280_temperature;BME280_humidity;BME280_pressure;Samples;Min_cycle;Max_cycle;Signal;HPM_P1;HPM_P2
2023/08/06 00:01:50;;;;;;;1.30;1.20;;;15.30;99.90;;;;;;5064374;28;20173;-79
2023/08/06 00:04:16;;;;;;;2.30;1.30;;;15.40;99.90;;;;;;5081452;28;20165;-79
2023/08/06 00:06:42;;;;;;;1.30;1.20;;;15.30;99.90;;;;;;5082059;28;20223;-79
2023/08/06 00:09:08;;;;;;;1.57;1.40;;;15.10;99.90;;;;;;5063899;28;20176;-79
2023/08/06 00:11:33;;;;;;;2.10;1.37;;;15.00;99.90;;;;;;5081852;28;20195;-78
2023/08/06 00:13:59;;;;;;;1.97;1.50;;;15.00;99.90;;;;;;5064238;28;20619;-79
2023/08/06 00:16:24;;;;;;;65.23;52.80;;;15.00;99.90;;;;;;5064043;28;20226;-78
2023/08/06 00:18:50;;;;;;;3.90;2.10;;;15.10;99.90;;;;;;5063728;28;20184;-80
2023/08/06 00:21:16;;;;;;;2.40;2.20;;;15.10;99.90;;;;;;5081450;28;20223;-79
2023/08/06 00:23:41;;;;;;;10.90;8.43;;;15.10;99.90;;;;;;5064017;28;20179;-79
2023/08/06 00:26:07;;;;;;;68.17;47.43;;;15.00;99.90;;;;;;5063864;28;20181;-80
2023/08/06 00:28:32;;;;;;;2.30;2.10;;;15.20;99.90;;;;;;5080349;28;20204;-81
2023/08/06 00:30:58;;;;;;;3.23;2.10;;;15.10;99.90;;;;;;5063181;28;20169;-79
2023/08/06 00:33:24;;;;;;;2.50;2.30;;;15.20;99.90;;;;;;5081236;28;20211;-79
2023/08/06 00:35:49;;;;;;;15.90;8.93;;;15.20;99.90;;;;;;5063382;28;20177;-79
2023/08/06 00:38:15;;;;;;;2.70;2.50;;;15.10;99.90;;;;;;5081834;28;20204;-79
2023/08/06 00:40:41;;;;;;;2.13;1.93;;;15.10;99.90;;;;;;5063141;28;20215;-79
2023/08/06 00:43:07;;;;;;;2.20;1.30;;;15.20;99.90;;;;;;5081065;28;20204;-79
2023/08/06 00:45:36;;;;;;;5.63;2.00;;;15.20;99.90;;;;;;5063810;28;20183;-79
2023/08/06 00:48:04;;;;;;;2.00;1.67;;;15.20;99.90;;;;;;5063702;28;20228;-79
2023/08/06 00:50:30;;;;;;;3.07;2.20;;;15.20;99.90;;;;;;5063165;28;20544;-79
2023/08/06 00:52:56;;;;;;;157.07;59.37;;;15.10;99.90;;;;;;5063203;28;20197;-79
2023/08/06 00:55:22;;;;;;;2.60;2.40;;;15.10;99.90;;;;;;5063117;28;20172;-79
2023/08/06 00:57:47;;;;;;;2.60;2.40;;;15.20;99.90;;;;;;5063074;28;20197;-79
2023/08/06 01:00:13;;;;;;;1.97;1.80;;;15.20;99.90;;;;;;5063571;28;20177;-79
2023/08/06 01:02:39;;;;;;;3.77;3.00;;;15.20;99.90;;;;;;5080594;28;20172;-79
2023/08/06 01:05:05;;;;;;;80.83;45.40;;;15.30;99.90;;;;;;5080413;28;20173;-79
2023/08/06 01:07:42;;;;;;;2.00;1.80;;;15.30;99.90;;;;;;5079803;28;20250;-79
2023/08/06 01:10:35;;;;;;;2.73;2.23;;;15.40;99.90;;;;;;5063126;28;20240;-79
2023/08/06 01:13:19;;;;;;;6.03;1.80;;;15.50;99.90;;;;;;5062102;28;20207;-79
2023/08/06 01:15:51;;;;;;;3.70;1.63;;;15.40;99.90;;;;;;5080420;28;20651;-79
2023/08/06 01:18:17;;;;;;;5.20;1.90;;;15.30;99.90;;;;;;5080373;28;20189;-80
2023/08/06 01:20:42;;;;;;;1.50;1.40;;;15.30;99.90;;;;;;5062071;28;20199;-79
2023/08/06 01:23:08;;;;;;;2.20;1.73;;;15.30;99.90;;;;;;5062246;28;20655;-79
2023/08/06 01:25:41;;;;;;;2.70;1.80;;;15.30;99.90;;;;;;5062442;28;20303;-78
2023/08/06 01:28:23;;;;;;;2.47;2.07;;;15.20;99.90;;;;;;5062143;28;20226;-78
2023/08/06 01:30:50;;;;;;;3.00;1.87;;;15.20;99.90;;;;;;5062314;28;20184;-79
2023/08/06 01:33:21;;;;;;;4.57;1.83;;;15.20;99.90;;;;;;5062183;28;20240;-79
2023/08/06 01:35:49;;;;;;;1.80;1.53;;;15.20;99.90;;;;;;5062669;28;20173;-79
2023/08/06 01:38:14;;;;;;;1.67;1.53;;;15.10;99.90;;;;;;5061800;28;20189;-79
2023/08/06 01:40:40;;;;;;;2.53;1.60;;;15.20;99.90;;;;;;5080009;28;20583;-79
2023/08/06 01:43:06;;;;;;;2.90;1.67;;;15.20;99.90;;;;;;5061866;28;20682;-79
2023/08/06 01:45:31;;;;;;;1.67;1.57;;;15.20;99.90;;;;;;5061615;28;20203;-79
2023/08/06 01:47:57;;;;;;;2.00;1.80;;;15.20;99.90;;;;;;5062046;28;20546;-79
2023/08/06 01:50:22;;;;;;;4.20;2.47;;;15.20;99.90;;;;;;5079685;28;20172;-79
2023/08/06 01:52:48;;;;;;;2.80;2.40;;;15.20;99.90;;;;;;5062192;28;20262;-81
2023/08/06 01:55:13;;;;;;;2.87;2.57;;;15.10;99.90;;;;;;5061637;28;20179;-79
2023/08/06 01:57:39;;;;;;;2.70;2.50;;;15.10;99.90;;;;;;5079726;28;20193;-78
2023/08/06 02:00:05;;;;;;;2.60;2.40;;;15.10;99.90;;;;;;5061502;28;20233;-80
2023/08/06 02:02:31;;;;;;;3.23;2.30;;;15.10;99.90;;;;;;5079317;28;20564;-79
2023/08/06 02:04:58;;;;;;;3.83;2.50;;;15.10;99.90;;;;;;5078956;28;20239;-81
2023/08/06 02:07:23;;;;;;;2.73;2.40;;;15.00;99.90;;;;;;5078701;28;20196;-79
2023/08/06 02:09:49;;;;;;;2.90;2.40;;;15.00;99.90;;;;;;5060185;28;20177;-79
2023/08/06 02:12:14;;;;;;;2.73;2.33;;;15.00;99.90;;;;;;5061275;28;20208;-80
2023/08/06 02:14:40;;;;;;;39.37;7.20;;;14.90;99.90;;;;;;5079645;28;20196;-79
2023/08/06 02:17:06;;;;;;;2.73;2.53;;;14.90;99.90;;;;;;5061912;28;20563;-79
2023/08/06 02:19:31;;;;;;;90.23;13.53;;;14.80;99.90;;;;;;5061061;28;20263;-78
2023/08/06 02:21:57;;;;;;;3.30;2.40;;;14.80;99.90;;;;;;5079460;28;20245;-79
2023/08/06 02:24:22;;;;;;;3.17;2.50;;;14.80;99.90;;;;;;5061511;28;20177;-78
2023/08/06 02:26:51;;;;;;;3.27;2.50;;;14.70;99.90;;;;;;5061157;28;20651;-81
2023/08/06 02:29:17;;;;;;;2.40;2.20;;;14.80;99.90;;;;;;5079034;28;20196;-79
2023/08/06 02:31:42;;;;;;;2.53;2.33;;;14.70;99.90;;;;;;5060954;28;20165;-78
2023/08/06 02:34:08;;;;;;;2.30;2.10;;;14.60;99.90;;;;;;5079928;28;20181;-79
2023/08/06 02:36:34;;;;;;;3.80;2.50;;;14.60;99.90;;;;;;5079327;28;20193;-80
2023/08/06 02:38:59;;;;;;;2.60;2.40;;;14.50;99.90;;;;;;5061473;28;20172;-79
2023/08/06 02:41:25;;;;;;;2.90;2.50;;;14.50;99.90;;;;;;5061386;28;20177;-79
2023/08/06 02:43:52;;;;;;;3.03;2.50;;;14.50;99.90;;;;;;5061706;28;20213;-78
2023/08/06 02:46:18;;;;;;;3.43;2.60;;;14.40;99.90;;;;;;5061182;28;20176;-81
2023/08/06 02:48:43;;;;;;;4.03;2.60;;;14.40;99.90;;;;;;5079465;28;20187;-79
2023/08/06 02:51:09;;;;;;;2.60;2.40;;;14.30;99.90;;;;;;5060708;28;20180;-79
2023/08/06 02:53:35;;;;;;;5.67;2.50;;;14.30;99.90;;;;;;5061658;28;20197;-79
2023/08/06 02:56:00;;;;;;;210.37;17.07;;;14.40;99.90;;;;;;5061755;28;20659;-79
2023/08/06 02:58:26;;;;;;;4.60;2.50;;;14.40;99.90;;;;;;5077912;28;20253;-78
2023/08/06 03:01:05;;;;;;;3.20;2.20;;;14.30;99.90;;;;;;5061022;28;20176;-79
2023/08/06 03:03:31;;;;;;;5.23;2.50;;;14.20;99.90;;;;;;5079859;28;20173;-78
2023/08/06 03:05:57;;;;;;;3.57;2.50;;;14.20;99.90;;;;;;5060931;28;20173;-79
2023/08/06 03:08:22;;;;;;;3.17;2.43;;;14.20;99.90;;;;;;5061207;28;20203;-79
2023/08/06 03:10:49;;;;;;;2.60;2.40;;;14.10;99.90;;;;;;5078984;28;20200;-79
2023/08/06 03:13:16;;;;;;;3.53;2.20;;;14.10;99.90;;;;;;5079386;28;20200;-79
2023/08/06 03:15:42;;;;;;;6.97;2.30;;;14.10;99.90;;;;;;5062519;28;20273;-77
2023/08/06 03:18:08;;;;;;;5.20;2.40;;;14.20;99.90;;;;;;5064610;28;20691;-79
2023/08/06 03:20:34;;;;;;;3.40;2.40;;;14.20;99.90;;;;;;5082520;28;20271;-79
2023/08/06 03:22:59;;;;;;;2.80;2.40;;;14.20;99.90;;;;;;5064257;28;20181;-80
2023/08/06 03:25:25;;;;;;;3.80;2.53;;;14.10;99.90;;;;;;5065055;28;20169;-79
2023/08/06 03:27:50;;;;;;;4.20;2.70;;;14.10;99.90;;;;;;5082645;28;20193;-78
2023/08/06 03:30:16;;;;;;;3.07;2.30;;;14.20;99.90;;;;;;5064426;28;20226;-79
2023/08/06 03:32:42;;;;;;;5.43;2.37;;;14.10;99.90;;;;;;5082400;28;20288;-79
2023/08/06 03:35:07;;;;;;;4.13;2.40;;;13.90;99.90;;;;;;5082331;28;20380;-79
2023/08/06 03:37:33;;;;;;;3.13;2.20;;;14.00;99.90;;;;;;5082246;28;20185;-79
2023/08/06 03:39:58;;;;;;;3.33;2.50;;;13.90;99.90;;;;;;5064592;28;20180;-79
2023/08/06 03:42:24;;;;;;;2.63;2.10;;;13.90;99.90;;;;;;5082663;28;20177;-78
2023/08/06 03:44:50;;;;;;;3.67;2.70;;;13.80;99.90;;;;;;5063851;28;20168;-79
2023/08/06 03:47:15;;;;;;;3.40;2.70;;;13.80;99.90;;;;;;5082158;28;20201;-79
2023/08/06 03:49:41;;;;;;;3.80;2.60;;;13.90;99.90;;;;;;5064017;28;20176;-80
2023/08/06 03:52:06;;;;;;;4.13;2.60;;;13.90;99.90;;;;;;5063865;28;20224;-79
2023/08/06 03:54:32;;;;;;;2.50;2.23;;;14.00;99.90;;;;;;5082247;28;20177;-79
2023/08/06 03:56:58;;;;;;;2.50;2.30;;;14.10;99.90;;;;;;5063947;28;20288;-79
2023/08/06 03:59:23;;;;;;;2.90;2.60;;;14.10;99.90;;;;;;5081378;28;20172;-79
2023/08/06 04:01:49;;;;;;;4.50;2.50;;;14.10;99.90;;;;;;5063981;28;20177;-79
2023/08/06 04:04:14;;;;;;;3.00;2.10;;;14.20;99.90;;;;;;5063995;28;20174;-79
2023/08/06 04:06:40;;;;;;;2.73;2.23;;;14.30;99.90;;;;;;5063057;28;20197;-79
2023/08/06 04:09:06;;;;;;;2.90;2.40;;;14.30;99.90;;;;;;5081408;28;20173;-78
2023/08/06 04:11:31;;;;;;;3.73;2.33;;;14.40;99.90;;;;;;5063414;28;20195;-79
2023/08/06 04:13:57;;;;;;;4.40;1.90;;;14.50;99.90;;;;;;5063025;28;20200;-79
2023/08/06 04:16:22;;;;;;;3.37;1.87;;;14.50;99.90;;;;;;5081334;28;20184;-79
2023/08/06 04:18:48;;;;;;;3.63;2.30;;;14.60;99.90;;;;;;5081072;28;20226;-81
2023/08/06 04:21:14;;;;;;;2.97;2.00;;;14.60;99.90;;;;;;5062224;28;20189;-79
2023/08/06 04:23:39;;;;;;;3.50;2.60;;;14.60;99.90;;;;;;5062495;28;20278;-79
2023/08/06 04:26:05;;;;;;;3.60;2.50;;;14.60;99.90;;;;;;5063247;28;20185;-80
2023/08/06 04:28:30;;;;;;;2.40;2.10;;;14.70;99.90;;;;;;5061891;28;20211;-79
2023/08/06 04:30:56;;;;;;;2.50;2.30;;;14.70;99.90;;;;;;5062674;28;20177;-80
2023/08/06 04:33:22;;;;;;;2.57;2.30;;;14.70;99.90;;;;;;5062405;28;20208;-80
2023/08/06 04:35:47;;;;;;;2.57;2.33;;;14.80;99.90;;;;;;5080565;28;20181;-79
2023/08/06 04:38:13;;;;;;;2.80;2.30;;;14.80;99.90;;;;;;5062319;28;20566;-79
2023/08/06 04:40:38;;;;;;;5.93;3.10;;;14.90;99.90;;;;;;5062971;28;20177;-79
2023/08/06 04:43:04;;;;;;;4.50;2.53;;;14.80;99.90;;;;;;5062193;28;20271;-79
2023/08/06 04:45:30;;;;;;;2.83;2.63;;;14.90;99.90;;;;;;5062600;28;20173;-79
2023/08/06 04:47:55;;;;;;;3.40;2.60;;;14.90;99.90;;;;;;5064077;28;20197;-79
2023/08/06 04:50:21;;;;;;;3.07;2.83;;;14.90;99.90;;;;;;5080982;28;20201;-78
2023/08/06 04:52:46;;;;;;;3.93;2.80;;;14.90;99.90;;;;;;5081137;28;20558;-79
2023/08/06 04:55:12;;;;;;;3.13;2.70;;;15.00;99.90;;;;;;5063371;28;20181;-78
2023/08/06 04:57:37;;;;;;;6.67;2.90;;;15.00;99.90;;;;;;5063693;28;20195;-79
2023/08/06 05:00:05;;;;;;;3.83;2.77;;;15.00;99.90;;;;;;5062843;28;20254;-78
2023/08/06 05:02:32;;;;;;;3.20;2.47;;;14.90;99.90;;;;;;5080998;28;20177;-79
2023/08/06 05:04:58;;;;;;;3.73;2.90;;;14.90;99.90;;;;;;5081054;28;20177;-79
2023/08/06 05:07:23;;;;;;;3.03;2.73;;;15.00;99.90;;;;;;5081562;28;20193;-78
2023/08/06 05:09:49;;;;;;;3.17;2.47;;;15.10;99.90;;;;;;5062622;28;20205;-82
2023/08/06 05:12:15;;;;;;;3.37;2.60;;;15.10;99.90;;;;;;5078624;28;20201;-82
2023/08/06 05:14:40;;;;;;;4.07;2.70;;;15.00;99.90;;;;;;5059926;28;20170;-82
2023/08/06 05:17:06;;;;;;;3.93;2.60;;;15.00;99.90;;;;;;5059658;28;20197;-82
2023/08/06 05:19:31;;;;;;;3.60;2.60;;;15.00;99.90;;;;;;5059770;28;20542;-82
2023/08/06 05:21:57;;;;;;;4.37;2.73;;;15.00;99.90;;;;;;5059329;28;20208;-83
2023/08/06 05:24:22;;;;;;;3.20;2.67;;;15.00;99.90;;;;;;5076904;28;20263;-83
2023/08/06 05:26:49;;;;;;;3.90;2.90;;;15.00;99.90;;;;;;5059418;28;20193;-82
2023/08/06 05:29:16;;;;;;;4.73;2.97;;;14.90;99.90;;;;;;5078311;28;20169;-83
2023/08/06 05:31:41;;;;;;;3.37;2.33;;;14.90;99.90;;;;;;5059572;28;20173;-82
2023/08/06 05:34:07;;;;;;;3.40;3.00;;;14.90;99.90;;;;;;5078051;28;20639;-83
2023/08/06 05:36:33;;;;;;;2.93;2.50;;;14.90;99.90;;;;;;5078070;28;20200;-84
2023/08/06 05:38:59;;;;;;;3.17;2.60;;;14.90;99.90;;;;;;5077244;28;20178;-82
2023/08/06 05:41:24;;;;;;;2.90;2.60;;;15.00;99.90;;;;;;5078118;28;20195;-82
2023/08/06 05:43:50;;;;;;;3.20;2.90;;;15.00;99.90;;;;;;5058975;28;20551;-82
2023/08/06 05:46:15;;;;;;;3.00;2.57;;;15.00;99.90;;;;;;5078192;28;20165;-84
2023/08/06 05:48:41;;;;;;;2.63;2.43;;;15.10;99.90;;;;;;5078148;28;20175;-82
2023/08/06 05:51:07;;;;;;;2.97;2.67;;;15.20;99.90;;;;;;5077227;28;20260;-82
2023/08/06 05:53:33;;;;;;;2.93;2.53;;;15.20;99.90;;;;;;5058947;28;20201;-82
2023/08/06 05:55:58;;;;;;;2.73;2.53;;;15.30;99.90;;;;;;5078232;28;20184;-82
2023/08/06 05:58:26;;;;;;;3.27;2.37;;;15.40;99.90;;;;;;5059158;28;20246;-82
2023/08/06 06:00:51;;;;;;;2.60;2.30;;;15.40;99.90;;;;;;5059563;28;20173;-82
2023/08/06 06:03:17;;;;;;;3.30;2.47;;;15.50;99.90;;;;;;5059519;28;20183;-82
2023/08/06 06:05:43;;;;;;;3.70;2.50;;;15.50;99.90;;;;;;5078577;28;20169;-82
2023/08/06 06:08:08;;;;;;;2.77;2.47;;;15.60;99.90;;;;;;5059891;28;20219;-84
2023/08/06 06:10:35;;;;;;;2.97;2.47;;;15.70;99.90;;;;;;5078122;28;20173;-82
2023/08/06 06:13:00;;;;;;;3.10;1.97;;;15.90;99.90;;;;;;5060377;28;20201;-82
2023/08/06 06:15:26;;;;;;;3.10;2.07;;;16.00;99.90;;;;;;5060785;28;20206;-82
2023/08/06 06:17:51;;;;;;;4.43;2.33;;;16.10;99.90;;;;;;5077729;28;20239;-82
2023/08/06 06:20:17;;;;;;;2.50;2.20;;;16.10;99.90;;;;;;5059833;28;20188;-83
2023/08/06 06:22:42;;;;;;;2.97;1.90;;;16.20;99.90;;;;;;5058079;28;20197;-82
2023/08/06 06:25:09;;;;;;;3.43;1.80;;;16.20;99.90;;;;;;5058601;28;20181;-82
2023/08/06 06:27:35;;;;;;;3.07;1.90;;;16.10;99.90;;;;;;5077237;28;20731;-82
2023/08/06 06:30:00;;;;;;;2.10;1.73;;;16.00;99.90;;;;;;5059944;28;20211;-82
2023/08/06 06:32:26;;;;;;;1.90;1.70;;;16.00;99.90;;;;;;5060052;28;20725;-82
2023/08/06 06:34:51;;;;;;;2.10;1.90;;;15.90;99.90;;;;;;5059735;28;20207;-83
2023/08/06 06:37:17;;;;;;;2.13;1.87;;;15.90;99.90;;;;;;5060496;28;20195;-82
2023/08/06 06:39:44;;;;;;;2.77;2.23;;;15.90;99.90;;;;;;5061565;28;20173;-82
2023/08/06 06:42:09;;;;;;;2.00;1.80;;;16.00;99.90;;;;;;5061706;28;20551;-83
2023/08/06 06:44:35;;;;;;;3.17;2.10;;;16.00;99.90;;;;;;5061860;28;20251;-82
2023/08/06 06:47:00;;;;;;;2.93;2.30;;;16.00;99.90;;;;;;5080448;28;20197;-82
2023/08/06 06:49:26;;;;;;;2.93;2.17;;;16.00;99.90;;;;;;5080268;28;20255;-84
2023/08/06 06:51:51;;;;;;;4.10;2.30;;;16.00;99.90;;;;;;5064898;28;20183;-82
2023/08/06 06:54:17;;;;;;;2.27;1.70;;;16.00;99.90;;;;;;5065360;28;20173;-82
2023/08/06 06:56:42;;;;;;;2.03;1.87;;;16.00;99.90;;;;;;5066399;28;20224;-82
2023/08/06 06:59:08;;;;;;;2.57;1.87;;;16.00;99.90;;;;;;5086130;28;20173;-82
2023/08/06 07:01:34;;;;;;;3.50;2.00;;;16.00;99.90;;;;;;5067613;28;20176;-82
2023/08/06 07:04:04;;;;;;;3.00;1.80;;;16.00;99.90;;;;;;5067756;28;20182;-82
2023/08/06 07:06:30;;;;;;;1.83;1.70;;;16.00;99.90;;;;;;5082902;28;20174;-83
2023/08/06 07:08:55;;;;;;;3.00;1.83;;;16.20;99.90;;;;;;5064906;28;20195;-82
2023/08/06 07:11:21;;;;;;;1.70;1.60;;;16.40;99.90;;;;;;5062014;28;20169;-82
2023/08/06 07:13:46;;;;;;;3.07;1.90;;;16.60;99.90;;;;;;5083703;28;20200;-82
2023/08/06 07:16:12;;;;;;;2.67;1.70;;;16.50;99.90;;;;;;5066765;28;20181;-82
2023/08/06 07:18:38;;;;;;;2.10;1.77;;;16.40;99.90;;;;;;5063982;28;20172;-81
2023/08/06 07:21:03;;;;;;;2.40;1.50;;;16.40;99.90;;;;;;5067852;28;20181;-82
2023/08/06 07:23:29;;;;;;;2.57;1.70;;;16.40;99.90;;;;;;5087565;28;20663;-82
2023/08/06 07:25:54;;;;;;;2.60;2.00;;;16.40;99.90;;;;;;5070159;28;20177;-82
2023/08/06 07:28:20;;;;;;;2.70;1.80;;;16.40;99.90;;;;;;5088781;28;20222;-83
2023/08/06 07:30:46;;;;;;;3.77;1.60;;;16.30;99.90;;;;;;5068980;28;20184;-84
2023/08/06 07:33:12;;;;;;;2.23;1.90;;;16.20;99.90;;;;;;5088551;28;20209;-82
2023/08/06 07:35:37;;;;;;;5.90;2.50;;;16.10;99.90;;;;;;5084383;28;20207;-81
2023/08/06 07:38:03;;;;;;;4.07;2.10;;;15.80;99.90;;;;;;5061676;28;20200;-82
2023/08/06 07:40:29;;;;;;;13.80;8.13;;;15.70;99.90;;;;;;5079246;28;20180;-82
2023/08/06 07:42:54;;;;;;;2.43;2.23;;;15.50;99.90;;;;;;5061157;28;20173;-82
2023/08/06 07:45:20;;;;;;;5.00;2.30;;;15.50;99.90;;;;;;5081444;28;20181;-82
2023/08/06 07:47:46;;;;;;;3.57;2.30;;;15.50;99.90;;;;;;5079802;28;20200;-82
2023/08/06 07:50:12;;;;;;;2.43;2.23;;;15.40;99.90;;;;;;5061258;28;20177;-82
2023/08/06 07:52:38;;;;;;;4.07;2.50;;;15.40;99.90;;;;;;5079352;28;20687;-82
2023/08/06 07:55:04;;;;;;;141.37;89.17;;;15.40;99.90;;;;;;5061229;28;20208;-83
2023/08/06 07:57:31;;;;;;;28.97;26.40;;;15.30;99.90;;;;;;5077981;28;20667;-82
2023/08/06 07:59:57;;;;;;;2.93;2.63;;;15.20;99.90;;;;;;5076824;28;20626;-84
2023/08/06 08:02:22;;;;;;;3.27;2.20;;;15.20;99.90;;;;;;5078605;28;20212;-82
2023/08/06 08:04:48;;;;;;;141.60;17.73;;;15.20;99.90;;;;;;5060978;28;20183;-82
2023/08/06 08:07:14;;;;;;;1.27;1.00;;;15.10;99.90;;;;;;5079362;28;20208;-82
2023/08/06 08:09:39;;;;;;;1.07;0.97;;;15.10;99.90;;;;;;5079301;28;20193;-82
2023/08/06 08:12:06;;;;;;;1.00;0.90;;;15.00;99.90;;;;;;5079104;28;20570;-82
2023/08/06 08:14:35;;;;;;;1.10;1.00;;;15.00;99.90;;;;;;5060415;28;20173;-82
2023/08/06 08:17:02;;;;;;;1.00;0.90;;;15.10;99.90;;;;;;5079279;28;20201;-82
2023/08/06 08:19:28;;;;;;;1.20;0.90;;;15.10;99.90;;;;;;5061349;28;20188;-84
2023/08/06 08:21:54;;;;;;;0.77;0.77;;;15.20;99.90;;;;;;5060365;28;20184;-82
2023/08/06 08:24:21;;;;;;;1.03;0.83;;;15.30;99.90;;;;;;5078975;28;20255;-82
2023/08/06 08:26:46;;;;;;;20.33;1.63;;;15.40;99.90;;;;;;5060802;28;20221;-83
2023/08/06 08:29:12;;;;;;;0.70;0.70;;;15.60;99.90;;;;;;5060919;28;20310;-83
2023/08/06 08:31:39;;;;;;;0.80;0.80;;;15.80;99.90;;;;;;5060679;28;20226;-82
2023/08/06 08:34:05;;;;;;;2.43;1.50;;;15.90;99.90;;;;;;5080013;28;20217;-82
2023/08/06 08:36:31;;;;;;;1.20;0.87;;;16.00;99.90;;;;;;5078867;28;20197;-82
2023/08/06 08:38:57;;;;;;;0.90;0.90;;;15.90;99.90;;;;;;5061475;28;20169;-82
2023/08/06 08:41:23;;;;;;;0.70;0.70;;;15.80;99.90;;;;;;5079327;28;20181;-83
2023/08/06 08:43:53;;;;;;;1.33;0.90;;;15.70;99.90;;;;;;5079469;28;20177;-82
2023/08/06 08:46:19;;;;;;;1.40;0.80;;;15.60;99.90;;;;;;5060048;28;20177;-81
2023/08/06 08:48:46;;;;;;;0.80;0.80;;;15.70;99.90;;;;;;5079796;28;20260;-82
2023/08/06 08:51:13;;;;;;;1.60;0.80;;;15.80;99.90;;;;;;5061079;28;20268;-82
2023/08/06 08:53:39;;;;;;;0.93;0.80;;;15.70;99.90;;;;;;5079909;28;20204;-81
2023/08/06 08:56:05;;;;;;;0.80;0.80;;;15.70;99.90;;;;;;5061013;28;20260;-82
2023/08/06 08:58:31;;;;;;;0.77;0.77;;;15.80;99.90;;;;;;5061946;28;20193;-82
2023/08/06 09:00:57;;;;;;;0.90;0.90;;;15.90;99.90;;;;;;5061815;28;20180;-82
2023/08/06 09:03:23;;;;;;;1.00;0.67;;;16.00;99.90;;;;;;5062187;28;20181;-82
2023/08/06 09:05:53;;;;;;;0.93;0.93;;;16.10;99.90;;;;;;5061222;28;20235;-83
2023/08/06 09:08:23;;;;;;;186.47;23.37;;;16.30;99.90;;;;;;5079907;28;20199;-82
2023/08/06 09:10:49;;;;;;;1.03;0.93;;;16.20;99.90;;;;;;5078518;28;20177;-82
2023/08/06 09:13:15;;;;;;;57.90;4.40;;;16.20;99.90;;;;;;5081222;28;20204;-82
2023/08/06 09:15:41;;;;;;;8.63;8.30;;;16.20;99.90;;;;;;5081528;28;20169;-82
2023/08/06 09:18:11;;;;;;;57.57;15.53;;;16.30;99.90;;;;;;5082301;28;20223;-79
2023/08/06 09:20:38;;;;;;;1.10;1.00;;;16.30;99.90;;;;;;5078562;28;20199;-82
2023/08/06 09:23:08;;;;;;;0.90;0.90;;;16.40;99.90;;;;;;5081165;28;20244;-82
2023/08/06 09:25:40;;;;;;;1.10;0.90;;;16.70;99.90;;;;;;5081125;28;20172;-82
2023/08/06 09:28:06;;;;;;;1.40;0.90;;;16.60;99.90;;;;;;5082300;28;20193;-83
2023/08/06 09:30:34;;;;;;;0.90;0.90;;;16.60;99.90;;;;;;5080836;28;20659;-82
2023/08/06 09:33:00;;;;;;;0.80;0.80;;;16.50;99.90;;;;;;5063274;28;20227;-82
2023/08/06 09:35:29;;;;;;;1.00;0.90;;;16.40;99.90;;;;;;5082147;28;20172;-82
2023/08/06 09:37:55;;;;;;;0.90;0.90;;;16.40;99.90;;;;;;5065029;28;20288;-82
2023/08/06 09:40:31;;;;;;;0.93;0.93;;;16.50;99.90;;;;;;5064907;28;20558;-82
2023/08/06 09:42:57;;;;;;;0.70;0.70;;;16.60;99.90;;;;;;5065643;28;20208;-82
2023/08/06 09:45:29;;;;;;;0.70;0.70;;;16.70;99.90;;;;;;5083318;28;20177;-85
2023/08/06 09:47:59;;;;;;;1.53;0.87;;;16.70;99.90;;;;;;5064014;28;20204;-82
2023/08/06 09:50:31;;;;;;;1.20;0.73;;;17.00;99.90;;;;;;5061328;28;20177;-83
2023/08/06 09:52:57;;;;;;;95.10;6.23;;;17.20;99.90;;;;;;5081727;28;20204;-83
2023/08/06 09:55:24;;;;;;;0.87;0.70;;;17.10;99.90;;;;;;5083508;28;20237;-82
2023/08/06 09:57:51;;;;;;;0.60;0.60;;;17.20;99.90;;;;;;5066539;28;20201;-83
2023/08/06 10:00:17;;;;;;;0.70;0.70;;;17.10;99.90;;;;;;5084462;28;20184;-83
2023/08/06 10:02:43;;;;;;;0.70;0.70;;;17.20;99.90;;;;;;5067812;28;20177;-84
2023/08/06 10:05:09;;;;;;;0.83;0.83;;;17.10;99.90;;;;;;5086473;28;20199;-80
2023/08/06 10:07:36;;;;;;;0.90;0.90;;;17.10;99.90;;;;;;5059583;28;20204;-82
2023/08/06 10:10:03;;;;;;;0.70;0.70;;;17.10;99.90;;;;;;5077164;28;20173;-82
2023/08/06 10:12:31;;;;;;;0.50;0.50;;;16.90;99.90;;;;;;5058946;28;20193;-83
2023/08/06 10:15:01;;;;;;;0.60;0.60;;;16.70;99.90;;;;;;5061191;28;20169;-82
2023/08/06 10:17:28;;;;;;;0.70;0.70;;;16.70;99.90;;;;;;5079071;28;20211;-82
2023/08/06 10:19:57;;;;;;;0.60;0.60;;;16.70;99.90;;;;;;5060268;28;20214;-83
2023/08/06 10:22:23;;;;;;;0.70;0.70;;;16.50;99.90;;;;;;5079273;28;20193;-82
2023/08/06 10:24:56;;;;;;;0.70;0.70;;;16.60;99.90;;;;;;5056883;28;20314;-81
2023/08/06 10:27:28;;;;;;;0.70;0.70;;;16.50;99.90;;;;;;5056480;28;20201;-82
2023/08/06 10:29:53;;;;;;;0.70;0.70;;;16.50;99.90;;;;;;5055399;28;20173;-82
2023/08/06 10:32:19;;;;;;;0.67;0.67;;;16.40;99.90;;;;;;5056062;28;20222;-82
2023/08/06 10:34:58;;;;;;;0.70;0.70;;;16.30;99.90;;;;;;5056075;28;20207;-82
2023/08/06 10:37:35;;;;;;;0.80;0.80;;;16.60;99.90;;;;;;5073902;28;20272;-82
2023/08/06 10:40:01;;;;;;;1.23;0.80;;;16.70;99.90;;;;;;5055367;28;20175;-82
2023/08/06 10:42:30;;;;;;;1.23;0.70;;;16.70;99.90;;;;;;5055331;28;20267;-82
2023/08/06 10:45:16;;;;;;;0.70;0.70;;;16.70;99.90;;;;;;5055400;28;20176;-83
2023/08/06 10:47:45;;;;;;;0.60;0.60;;;16.80;99.90;;;;;;5055609;28;20199;-82
2023/08/06 10:50:16;;;;;;;0.50;0.50;;;16.60;99.90;;;;;;5055768;28;20169;-82
2023/08/06 10:52:43;;;;;;;0.80;0.70;;;16.90;99.90;;;;;;5055682;28;20200;-82
2023/08/06 10:55:09;;;;;;;0.60;0.60;;;17.30;99.90;;;;;;5073857;28;20648;-82
2023/08/06 10:57:34;;;;;;;0.93;0.47;;;17.40;99.90;;;;;;5055680;28;20192;-82
2023/08/06 11:00:00;;;;;;;0.50;0.50;;;17.60;99.90;;;;;;5054927;28;20173;-82
2023/08/06 11:02:26;;;;;;;0.70;0.60;;;17.60;99.90;;;;;;5056018;28;20671;-81
2023/08/06 11:04:51;;;;;;;0.40;0.40;;;17.60;99.90;;;;;;5073958;28;20230;-82
2023/08/06 11:07:17;;;;;;;0.43;0.43;;;17.60;99.90;;;;;;5074014;28;20192;-82
2023/08/06 11:09:43;;;;;;;0.83;0.60;;;17.50;99.90;;;;;;5073078;28;20173;-82
2023/08/06 11:12:12;;;;;;;0.50;0.50;;;17.70;99.90;;;;;;5055838;28;20196;-82
2023/08/06 11:14:38;;;;;;;102.50;6.37;;;18.00;99.90;;;;;;5055515;28;20207;-82
2023/08/06 11:17:05;;;;;;;1.63;0.50;;;18.20;99.90;;;;;;5056087;28;20192;-82
2023/08/06 11:19:31;;;;;;;0.63;0.63;;;18.40;99.90;;;;;;5073968;28;20170;-82
2023/08/06 11:21:56;;;;;;;0.80;0.80;;;18.10;99.90;;;;;;5055242;28;20181;-82
2023/08/06 11:24:24;;;;;;;0.80;0.80;;;18.00;99.90;;;;;;5055276;28;20169;-82
2023/08/06 11:26:49;;;;;;;0.90;0.90;;;17.90;99.90;;;;;;5055697;28;20201;-83
2023/08/06 11:29:16;;;;;;;40.13;2.60;;;17.80;99.90;;;;;;5056072;28;20169;-82
2023/08/06 11:31:41;;;;;;;0.87;0.87;;;17.80;99.90;;;;;;5055964;28;20180;-82
2023/08/06 11:34:07;;;;;;;1.23;1.00;;;17.80;99.90;;;;;;5073585;28;20205;-82
2023/08/06 11:36:34;;;;;;;0.90;0.90;;;18.20;99.90;;;;;;5057074;28;20185;-83
2023/08/06 11:39:01;;;;;;;0.73;0.73;;;18.90;99.90;;;;;;5076905;28;20177;-82
2023/08/06 11:41:31;;;;;;;0.93;0.83;;;19.40;1.00;;;;;;5058473;28;20227;-82
2023/08/06 11:43:58;;;;;;;1.00;0.80;;;19.70;1.00;;;;;;5059076;28;20172;-82
2023/08/06 11:46:25;;;;;;;0.90;0.90;;;19.80;99.90;;;;;;5077165;28;20184;-82
2023/08/06 11:48:52;;;;;;;0.90;0.90;;;20.10;1.00;;;;;;5058946;28;20184;-83
2023/08/06 11:51:17;;;;;;;0.70;0.70;;;20.30;1.00;;;;;;5077147;28;20520;-82
2023/08/06 11:53:48;;;;;;;1.30;0.80;;;19.80;99.90;;;;;;5076906;28;20676;-79
2023/08/06 11:56:14;;;;;;;1.50;0.80;;;19.70;99.90;;;;;;5059673;28;20191;-82
2023/08/06 11:58:41;;;;;;;0.80;0.80;;;19.90;1.00;;;;;;5077740;28;20264;-81
2023/08/06 12:01:07;;;;;;;0.87;0.87;;;19.90;95.40;;;;;;5059020;28;20165;-81
2023/08/06 12:03:32;;;;;;;0.80;0.80;;;19.90;99.90;;;;;;5077444;28;20610;-81
2023/08/06 12:05:58;;;;;;;0.60;0.60;;;19.80;1.00;;;;;;5057889;28;20175;-81
2023/08/06 12:08:27;;;;;;;0.80;0.80;;;19.50;14.70;;;;;;5077668;28;20197;-81
2023/08/06 12:10:53;;;;;;;1.10;0.80;;;19.30;99.90;;;;;;5058405;28;20172;-82
2023/08/06 12:13:19;;;;;;;0.80;0.77;;;19.30;1.00;;;;;;5074755;28;20212;-82
2023/08/06 12:15:45;;;;;;;1.27;0.80;;;19.30;1.00;;;;;;5058778;28;20644;-82
2023/08/06 12:18:10;;;;;;;1.87;0.90;;;19.40;99.90;;;;;;5058892;28;20189;-82
2023/08/06 12:20:38;;;;;;;0.80;0.80;;;19.30;1.00;;;;;;5059154;28;20294;-80
2023/08/06 12:23:04;;;;;;;1.27;0.80;;;19.10;1.00;;;;;;5059696;28;20195;-81
2023/08/06 12:25:29;;;;;;;1.03;0.90;;;18.90;1.00;;;;;;5059129;28;20177;-81
2023/08/06 12:27:55;;;;;;;1.53;1.00;;;18.50;99.90;;;;;;5058745;28;20196;-84
2023/08/06 12:30:20;;;;;;;0.90;0.90;;;18.00;99.90;;;;;;5057208;28;20180;-85
2023/08/06 12:32:46;;;;;;;1.50;1.00;;;17.80;99.90;;;;;;5074673;28;20196;-86
2023/08/06 12:35:12;;;;;;;2.07;1.00;;;17.90;99.90;;;;;;5056818;28;20173;-84
2023/08/06 12:37:40;;;;;;;1.10;1.00;;;17.90;99.90;;;;;;5057604;28;20566;-82
2023/08/06 12:40:06;;;;;;;1.63;1.00;;;18.10;99.90;;;;;;5057965;28;20166;-83
2023/08/06 12:42:32;;;;;;;1.10;0.87;;;18.10;99.90;;;;;;5075419;28;20176;-82